• Join FlightAware (Why Join?)
  • Login
  • US Flag 
10:29AM EDT


 

Airport Tracker/Info


-or-


 

Live Flight TrackerFlight Track Log ✈ N913FD ✈ 09-May-2013 ✈ KPHL - KMEM

Flight Track Log - Related Links

Times and Time Zones

All times are in EDT time to prevent confusion due to time zone crossing. See the N913FD flight status page for this flight to view local times or setup timezone preferences in your user account.

Time Position Orientation Groundspeed Altitude Reporting Facility
EDT Latitude Longitude Course Direction KTS MPH feet Rate Location/Type
10:39PM 39.8589 -75.2782 243° Southwest 157 181 1,400  Level FlightAware ADS-B
10:39PM 39.8536 -75.2913 242° Southwest 169 194 1,900 1,800 Climbing FlightAware ADS-B
10:39PM 39.8505 -75.2989 242° Southwest 183 211 2,100 1,800 Climbing FlightAware ADS-B
10:39PM 39.8441 -75.3148 242° Southwest 206 237 2,600 2,040 Climbing FlightAware ADS-B
10:39PM 39.8362 -75.3345 242° Southwest 227 261 3,200 2,220 Climbing FlightAware ADS-B
10:40PM 39.8280 -75.3536 241° Southwest 247 284 3,800 2,580 Climbing FlightAware ADS-B
10:40PM 39.8194 -75.3734 241° Southwest 256 295 4,500 3,060 Climbing FlightAware ADS-B
10:40PM 39.8104 -75.3937 240° Southwest 257 296 5,400 3,420 Climbing FlightAware ADS-B
10:40PM 39.8076 -75.4006 242° Southwest 257 296 5,700 3,720 Climbing FlightAware ADS-B
10:40PM 39.8063 -75.4048 248° West 256 295 5,900 3,960 Climbing FlightAware ADS-B
10:40PM 39.8051 -75.4107 255° West 255 293 6,100 3,960 Climbing FlightAware ADS-B
10:40PM 39.8040 -75.4197 261° West 254 292 6,500 3,240 Climbing FlightAware ADS-B
10:41PM 39.8036 -75.4259 265° West 256 295 6,700 3,000 Climbing FlightAware ADS-B
10:41PM 39.8036 -75.4305 270° West 256 295 6,900 3,000 Climbing FlightAware ADS-B
10:41PM 39.8043 -75.4382 277° West 258 297 7,100 2,640 Climbing FlightAware ADS-B
10:41PM 39.8056 -75.4459 282° West 258 297 7,300 3,420 Climbing FlightAware ADS-B
10:41PM 39.8069 -75.4504 291° West 260 299 7,500 3,000 Climbing FlightAware ADS-B
10:41PM 39.8093 -75.4574 294° West 261 300 7,700 3,000 Climbing FlightAware ADS-B
10:41PM 39.8125 -75.4641 302° West 261 300 8,000 3,300 Climbing FlightAware ADS-B
10:41PM 39.8224 -75.4824 305° West 263 303 8,800 2,760 Climbing FlightAware ADS-B
10:41PM 39.8328 -75.5019 305° West 264 304 9,400 1,980 Climbing FlightAware ADS-B
10:42PM 39.8433 -75.5234 302° West 269 310 9,800 1,080 Climbing FlightAware ADS-B
10:42PM 39.8546 -75.5453 304° West 269 310 10,000 480 Climbing FlightAware ADS-B
10:43PM 39.8779 -75.5907 304° West 316 364 10,200 1,140 Climbing FlightAware ADS-B
10:43PM 39.8952 -75.6248 303° West 331 381 11,000 2,160 Climbing FlightAware ADS-B
10:43PM 39.8975 -75.6299 300° West 334 384 11,100 1,800 Climbing FlightAware ADS-B
10:43PM 39.9017 -75.6433 292° West 341 392 11,300 1,800 Climbing FlightAware ADS-B
10:43PM 39.9043 -75.6573 284° West 347 399 11,500 2,520 Climbing FlightAware ADS-B
10:43PM 39.9049 -75.6719 273° West 351 404 11,900 3,240 Climbing FlightAware ADS-B
10:43PM 39.9043 -75.6803 265° West 354 407 12,100 3,000 Climbing FlightAware ADS-B
10:43PM 39.9025 -75.6931 260° West 355 409 12,400 2,460 Climbing FlightAware ADS-B
10:44PM 39.8889 -75.7560 254° West 369 425 13,600 2,700 Climbing FlightAware ADS-B
10:44PM 39.8736 -75.8199 253° West 371 427 15,200 2,520 Climbing FlightAware ADS-B
10:45PM 39.8582 -75.8854 253° West 385 443 16,200 2,400 Climbing FlightAware ADS-B
10:45PM 39.8431 -75.9547 254° West 389 448 17,600 2,520 Climbing FlightAware ADS-B
10:46PM 39.8256 -76.0295 253° West 396 456 18,900 2,340 Climbing FlightAware ADS-B
10:47PM 39.8091 -76.0982 253° West 401 461 20,100 2,160 Climbing FlightAware ADS-B
10:47PM 39.7924 -76.1702 253° West 406 467 21,100 1,980 Climbing FlightAware ADS-B
10:48PM 39.7757 -76.2410 253° West 413 475 22,100 1,860 Climbing FlightAware ADS-B
10:48PM 39.7588 -76.3127 253° West 420 483 23,000 1,740 Climbing FlightAware ADS-B
10:49PM 39.7407 -76.3906 253° West 427 491 23,900 1,680 Climbing FlightAware ADS-B
10:49PM 39.7228 -76.4648 253° West 433 498 24,800 1,620 Climbing FlightAware ADS-B
10:50PM 39.7042 -76.5450 253° West 439 505 25,600 1,620 Climbing FlightAware ADS-B
10:50PM 39.6860 -76.6213 253° West 445 512 26,500 1,560 Climbing FlightAware ADS-B
10:51PM 39.6674 -76.6978 252° West 448 516 27,200 1,380 Climbing FlightAware ADS-B
10:51PM 39.6472 -76.7832 253° West 453 521 28,000 1,380 Climbing FlightAware ADS-B
10:52PM 39.6275 -76.8638 252° West 457 526 28,700 1,500 Climbing FlightAware ADS-B
10:52PM 39.6078 -76.9449 253° West 456 525 29,600 1,740 Climbing FlightAware ADS-B
10:53PM 39.5870 -77.0329 253° West 454 522 30,600 1,800 Climbing FlightAware ADS-B
10:53PM 39.5681 -77.1101 252° West 448 516 31,500 1,980 Climbing FlightAware ADS-B
10:54PM 39.5495 -77.1859 252° West 438 504 32,600 2,040 Climbing FlightAware ADS-B
10:54PM 39.5310 -77.2605 252° West 433 498 33,600 1,800 Climbing FlightAware ADS-B
10:55PM 39.5095 -77.3486 252° West 427 491 34,600 1,440 Climbing FlightAware ADS-B
10:55PM 39.4911 -77.4242 253° West 429 494 35,200 1,260 Climbing FlightAware ADS-B
10:56PM 39.4730 -77.4974 252° West 427 491 35,900 780 Climbing FlightAware ADS-B
10:56PM 39.4547 -77.5699 252° West 422 486 36,000 60 Climbing FlightAware ADS-B
10:57PM 39.4370 -77.6409 252° West 415 478 36,000  Level FlightAware ADS-B
10:57PM 39.4193 -77.7137 253° West 412 474 36,000  Level FlightAware ADS-B
10:58PM 39.4012 -77.7842 252° West 413 475 36,000  Level FlightAware ADS-B
10:58PM 39.3792 -77.8660 251° West 418 481 36,000  Level FlightAware ADS-B
10:59PM 39.3544 -77.9399 247° West 422 486 36,000  Level FlightAware ADS-B
11:00PM 39.3240 -78.0330 247° West 424 488 36,000  Level FlightAware
11:00PM 39.2920 -78.1230 245° Southwest 424 488 36,000  Level FlightAware
11:01PM 39.2560 -78.2300 247° West 424 488 36,000  Level FlightAware
11:02PM 39.2250 -78.3230 247° West 424 488 36,000  Level FlightAware
11:03PM 39.1890 -78.4270 246° West 422 486 36,000  Level FlightAware
11:03PM 39.1580 -78.5190 247° West 423 487 36,000  Level FlightAware
11:04PM 39.1260 -78.6090 245° Southwest 424 488 36,000  Level FlightAware
11:05PM 39.0920 -78.7100 247° West 424 488 36,000  Level FlightAware
11:05PM 39.0590 -78.8040 246° West 423 487 36,000  Level FlightAware
11:06PM 39.0220 -78.9110 246° West 425 489 36,000  Level FlightAware
11:07PM 38.9910 -79.0010 246° West 427 491 36,000  Level FlightAware
11:07PM 38.9540 -79.1070 246° West 428 493 36,000  Level FlightAware
11:08PM 38.9210 -79.2000 246° West 429 494 36,000  Level FlightAware
11:09PM 38.8880 -79.2930 246° West 431 496 36,000  Level FlightAware
11:10PM 38.8510 -79.3980 246° West 433 498 36,000  Level FlightAware
11:10PM 38.8180 -79.4910 246° West 432 497 36,000  Level FlightAware
11:11PM 38.7870 -79.5780 245° Southwest 432 497 36,000  Level FlightAware
11:12PM 38.7530 -79.6730 245° Southwest 435 501 36,000  Level FlightAware
11:12PM 38.7140 -79.7830 246° West 435 501 36,000  Level FlightAware
11:13PM 38.7110 -79.7910 244° Southwest 435 501 36,000  Level FlightAware
11:14PM 38.6520 -79.9570 246° West 435 501 36,000  Level FlightAware
11:14PM 38.6240 -80.0310 244° Southwest 435 501 36,000  Level FlightAware
11:15PM 38.5860 -80.1370 245° Southwest 436 502 36,000  Level FlightAware
11:15PM 38.6060 -80.0830 65° Northeast 437 503 36,000  Level FlightAware
11:16PM 38.5710 -80.1770 245° Southwest 437 503 36,000  Level FlightAware
11:17PM 38.5420 -80.2560 245° Southwest 437 503 36,000  Level FlightAware
11:18PM 38.5060 -80.3560 245° Southwest 437 503 36,000  Level FlightAware
11:18PM 38.4010 -80.6420 245° Southwest 441 507 36,000  Level FlightAware
11:19PM 38.3670 -80.7360 245° Southwest 442 509 36,000  Level FlightAware
11:20PM 38.3270 -80.8420 244° Southwest 445 512 36,000  Level FlightAware
11:20PM 38.2930 -80.9350 245° Southwest 445 512 36,000  Level FlightAware
11:21PM 38.2520 -81.0440 244° Southwest 445 512 36,000  Level FlightAware
11:22PM 38.2170 -81.1380 245° Southwest 441 507 36,000  Level FlightAware
11:23PM 38.1790 -81.2390 244° Southwest 423 487 36,000  Level FlightAware
11:23PM 38.1450 -81.3290 244° Southwest 413 475 36,000  Level FlightAware
11:24PM 38.1120 -81.4140 244° Southwest 411 473 36,000  Level FlightAware
11:25PM 38.0740 -81.5160 245° Southwest 412 474 36,000  Level FlightAware
11:25PM 38.0410 -81.6040 245° Southwest 413 475 36,000  Level FlightAware
11:26PM 38.0080 -81.6910 244° Southwest 415 478 36,000  Level FlightAware
11:27PM 37.9726 -81.7808 243° Southwest 415 478 36,000  Level FlightAware ADS-B
11:27PM 37.9458 -81.8515 244° Southwest 423 487 36,000  Level FlightAware ADS-B
11:28PM 37.9200 -81.9189 244° Southwest 428 493 36,000  Level FlightAware ADS-B
11:28PM 37.8933 -81.9866 243° Southwest 430 495 36,000 240 Level FlightAware ADS-B
11:29PM 37.8670 -82.0544 244° Southwest 427 491 36,300 1,380 Climbing FlightAware ADS-B
11:29PM 37.8411 -82.1232 245° Southwest 421 484 37,400 1,680 Climbing FlightAware ADS-B
11:30PM 37.8151 -82.1890 243° Southwest 416 479 38,000 600 Climbing FlightAware ADS-B
11:30PM 37.7897 -82.2545 244° Southwest 415 478 38,000  Level FlightAware ADS-B
11:31PM 37.7638 -82.3221 244° Southwest 415 478 38,000  Level FlightAware ADS-B
11:31PM 37.7306 -82.4070 244° Southwest 417 480 38,000  Level FlightAware ADS-B
11:32PM 37.7041 -82.4749 244° Southwest 419 482 38,000  Level FlightAware ADS-B
11:33PM 37.6726 -82.5540 243° Southwest 420 483 38,000  Level FlightAware ADS-B
11:33PM 37.6465 -82.6197 243° Southwest 419 482 38,000  Level FlightAware ADS-B
11:34PM 37.6181 -82.6920 244° Southwest 419 482 38,000  Level FlightAware ADS-B
11:34PM 37.5818 -82.7835 243° Southwest 417 480 38,000  Level FlightAware ADS-B
11:35PM 37.5550 -82.8530 244° Southwest 415 478 38,000  Level FlightAware ADS-B
11:35PM 37.5291 -82.9179 243° Southwest 415 478 38,000  Level FlightAware ADS-B
11:36PM 37.5027 -82.9826 243° Southwest 414 476 38,000  Level FlightAware ADS-B
11:36PM 37.4768 -83.0493 244° Southwest 414 476 38,000  Level FlightAware ADS-B
11:37PM 37.4506 -83.1137 243° Southwest 414 476 38,000  Level FlightAware ADS-B
11:37PM 37.4239 -83.1804 243° Southwest 414 476 38,000  Level FlightAware ADS-B
11:38PM 37.3895 -83.2685 244° Southwest 414 476 38,000  Level FlightAware ADS-B
11:39PM 37.3659 -83.3342 246° West 412 474 38,000  Level FlightAware ADS-B
11:39PM 37.3428 -83.4021 247° West 412 474 38,000  Level FlightAware ADS-B
11:40PM 37.3198 -83.4678 246° West 412 474 38,000  Level FlightAware ADS-B
11:40PM 37.2969 -83.5335 246° West 411 473 38,000  Level FlightAware ADS-B
11:41PM 37.2738 -83.5989 246° West 412 474 38,000  Level FlightAware ADS-B
11:41PM 37.2348 -83.7103 246° West 412 474 38,000  Level FlightAware ADS-B
11:42PM 37.2113 -83.7779 246° West 412 474 38,000  Level FlightAware ADS-B
11:42PM 37.1881 -83.8434 246° West 411 473 38,000  Level FlightAware ADS-B
11:43PM 37.1649 -83.9086 246° West 411 473 38,000  Level FlightAware ADS-B
11:43PM 37.1416 -83.9739 246° West 410 472 38,000  Level FlightAware ADS-B
11:45PM 37.0803 -84.1470 246° West 410 472 38,000  Level FlightAware ADS-B
11:45PM 37.0588 -84.2076 246° West 407 468 38,000  Level FlightAware ADS-B
11:46PM 37.0358 -84.2719 246° West 406 467 38,000  Level FlightAware ADS-B
11:46PM 37.0121 -84.3383 246° West 404 465 38,000  Level FlightAware ADS-B
11:47PM 36.9890 -84.4021 246° West 402 463 38,000  Level FlightAware ADS-B
11:47PM 36.9660 -84.4656 246° West 402 463 38,000  Level FlightAware ADS-B
11:48PM 36.9428 -84.5291 245° Southwest 401 461 38,000  Level FlightAware ADS-B
11:48PM 36.9184 -84.5965 246° West 400 460 38,000  Level FlightAware ADS-B
11:49PM 36.8926 -84.6680 246° West 400 460 38,000  Level FlightAware ADS-B
11:49PM 36.8697 -84.7311 246° West 398 458 38,000  Level FlightAware ADS-B
11:50PM 36.8466 -84.7959 246° West 398 458 38,000  Level FlightAware ADS-B
11:50PM 36.8201 -84.8669 245° Southwest 397 457 38,000  Level FlightAware ADS-B
11:51PM 36.7786 -84.9810 246° West 395 455 38,000  Level FlightAware ADS-B
11:52PM 36.7548 -85.0452 245° Southwest 395 455 38,000  Level FlightAware ADS-B
11:53PM 36.7226 -85.1342 246° West 396 456 38,000  Level FlightAware ADS-B
11:54PM 36.6703 -85.2747 245° Southwest 394 453 38,000  Level FlightAware ADS-B
11:54PM 36.6472 -85.3382 246° West 393 452 38,000  Level FlightAware ADS-B
11:55PM 36.6227 -85.4038 245° Southwest 392 451 38,000  Level FlightAware ADS-B
11:55PM 36.5940 -85.4790 245° Southwest 391 450 38,000  Level FlightAware
11:56PM 36.5717 -85.5404 246° West 390 449 38,000  Level FlightAware ADS-B
11:57PM 36.5280 -85.6560 245° Southwest 388 447 38,000  Level FlightAware
11:57PM 36.5129 -85.6966 245° Southwest 390 449 38,000  Level FlightAware ADS-B
11:58PM 36.4892 -85.7595 245° Southwest 390 449 38,000  Level FlightAware ADS-B
11:58PM 36.4620 -85.8320 245° Southwest 388 447 38,000  Level FlightAware
11:58PM 36.4591 -85.8404 247° West 389 448 38,000  Level FlightAware ADS-B
11:59PM 36.4340 -85.9071 245° Southwest 389 448 38,000  Level FlightAware ADS-B
12:00AM 36.3990 -86.0000 245° Southwest 387 445 38,000  Level FlightAware
12:00AM 36.3680 -86.0820 245° Southwest 385 443 38,000  Level FlightAware
12:01AM 36.3380 -86.1620 245° Southwest 384 442 38,000  Level FlightAware
12:02AM 36.3040 -86.2510 245° Southwest 382 440 38,000  Level FlightAware
12:02AM 36.2730 -86.3300 244° Southwest 381 438 38,000 -240 Level FlightAware
12:03AM 36.2420 -86.4110 245° Southwest 376 433 37,700 -1,440 Descending FlightAware
12:04AM 36.2100 -86.4960 245° Southwest 397 457 36,000 -1,920 Descending FlightAware
12:05AM 36.1760 -86.5840 244° Southwest 420 483 35,000 -720 Descending FlightAware
12:05AM 36.1390 -86.6820 245° Southwest 419 482 35,000  Level FlightAware
12:06AM 36.1191 -86.7389 247° West 413 475 35,000  Level FlightAware ADS-B
12:06AM 36.0962 -86.8112 249° West 412 474 35,000  Level FlightAware ADS-B
12:07AM 36.0751 -86.8791 249° West 411 473 35,000  Level FlightAware ADS-B
12:07AM 36.0536 -86.9467 249° West 409 471 35,000  Level FlightAware ADS-B
12:08AM 36.0325 -87.0117 248° West 407 468 35,000  Level FlightAware ADS-B
12:08AM 36.0076 -87.0894 248° West 406 467 35,000  Level FlightAware ADS-B
12:09AM 35.9640 -87.2250 248° West 406 467 35,000  Level FlightAware
12:10AM 35.9330 -87.3200 248° West 407 468 35,000  Level FlightAware
12:11AM 35.9050 -87.4080 249° West 407 468 35,000  Level FlightAware
12:12AM 35.8740 -87.5050 249° West 407 468 35,000  Level FlightAware
12:12AM 35.8460 -87.5920 248° West 407 468 35,000  Level FlightAware
12:13AM 35.8180 -87.6750 247° West 407 468 35,000  Level FlightAware
12:14AM 35.7850 -87.7740 248° West 407 468 35,000  Level FlightAware
12:14AM 35.7620 -87.8450 248° West 407 468 35,000  Level FlightAware
12:15AM 35.7400 -87.9130 248° West 407 468 35,000 -120 Level FlightAware
12:16AM 35.6990 -88.0380 248° West 415 478 34,900 -60 Descending FlightAware
12:17AM 35.6680 -88.1320 248° West 415 478 34,900  Level FlightAware
12:17AM 35.6440 -88.2060 248° West 415 478 34,900  Level FlightAware
12:18AM 35.6190 -88.2800 247° West 415 478 34,900  Level FlightAware
12:19AM 35.5950 -88.3550 249° West 415 478 34,900  Level FlightAware
12:19AM 35.5700 -88.4290 247° West 415 478 34,900  Level FlightAware
12:20AM 35.5400 -88.5220 248° West 415 478 34,900  Level FlightAware
12:21AM 35.5150 -88.5970 248° West 415 478 34,900  Level FlightAware
12:21AM 35.4910 -88.6710 248° West 415 478 34,900  Level FlightAware
12:22AM 35.4660 -88.7450 247° West 415 478 34,900  Level FlightAware
12:23AM 35.4420 -88.8200 249° West 415 478 34,900  Level FlightAware
12:24AM 35.4110 -88.9130 248° West 415 478 34,900  Level FlightAware
12:24AM 35.3870 -88.9870 248° West 415 478 34,900  Level FlightAware
12:25AM 35.3620 -89.0610 248° West 415 478 34,900 -21,660 Level FlightAware
12:25AM 35.0822 -89.0808 248° West 316 364 10,000 -17,700 Descending Memphis Center
12:26AM 35.0411 -89.1472 233° Southwest 272 313 8,700 -1,380 Descending Memphis Center
12:27AM 35.0378 -89.2361 267° West 247 284 7,300 -1,320 Descending Memphis Center
12:28AM 35.0406 -89.3197 272° West 252 290 6,100 -660 Descending Memphis Center
12:29AM 35.0433 -89.4058 272° West 252 290 6,000 -780 Descending Memphis Center
12:30AM 35.0481 -89.4869 274° West 252 290 4,600 -1,020 Descending Memphis Center
12:31AM 35.0486 -89.5733 270° West 252 290 4,000 -300 Descending Memphis Center
12:32AM 35.0533 -89.6519 274° West 241 277 4,100 -300 Climbing Memphis Center
12:33AM 35.0536 -89.7103 270° West 195 224 3,500 -420 Descending Memphis Center
12:34AM 35.0561 -89.7661 273° West 170 196 3,300 -540 Descending Memphis Center
12:35AM 35.0561 -89.8192 270° West 165 190 2,500 -900 Descending Memphis Center
12:36AM 35.0564 -89.8750 270° West 160 184 1,600 -840 Descending Memphis Center
12:37AM 35.0586 -89.9233 273° West 149 171 900 -720 Descending Memphis Center
12:40AM 35.0333 -89.9667 270° West  Level FlightAware Approximate